sensor_id;sensor_type;location;lat;lon;timestamp;P1;durP1;ratioP1;P2;durP2;ratioP2
13487;SDS011;6816;48.506;9.050;2022-08-04T00:00:14;1.65;;;1.55;;
13487;SDS011;6816;48.506;9.050;2022-08-04T00:03:18;1.67;;;1.58;;
13487;SDS011;6816;48.506;9.050;2022-08-04T00:09:59;1.67;;;1.58;;
13487;SDS011;6816;48.506;9.050;2022-08-04T00:13:02;1.90;;;1.40;;
13487;SDS011;6816;48.506;9.050;2022-08-04T00:16:06;1.70;;;1.60;;
13487;SDS011;6816;48.506;9.050;2022-08-04T00:19:15;1.60;;;1.50;;
13487;SDS011;6816;48.506;9.050;2022-08-04T00:22:16;1.88;;;1.77;;
13487;SDS011;6816;48.506;9.050;2022-08-04T00:25:20;1.67;;;1.58;;
13487;SDS011;6816;48.506;9.050;2022-08-04T00:28:22;1.80;;;1.70;;
13487;SDS011;6816;48.506;9.050;2022-08-04T00:31:23;2.00;;;1.90;;
13487;SDS011;6816;48.506;9.050;2022-08-04T00:34:26;2.85;;;1.90;;
13487;SDS011;6816;48.506;9.050;2022-08-04T00:37:27;1.70;;;1.60;;
13487;SDS011;6816;48.506;9.050;2022-08-04T00:40:33;1.80;;;1.70;;
13487;SDS011;6816;48.506;9.050;2022-08-04T00:43:42;1.92;;;1.77;;
13487;SDS011;6816;48.506;9.050;2022-08-04T01:49:41;2.05;;;1.92;;
13487;SDS011;6816;48.506;9.050;2022-08-04T01:52:47;3.50;;;1.80;;
13487;SDS011;6816;48.506;9.050;2022-08-04T01:55:51;2.53;;;1.77;;
13487;SDS011;6816;48.506;9.050;2022-08-04T01:58:54;2.00;;;1.80;;
13487;SDS011;6816;48.506;9.050;2022-08-04T02:01:56;2.22;;;2.03;;
13487;SDS011;6816;48.506;9.050;2022-08-04T02:04:57;2.55;;;2.00;;
13487;SDS011;6816;48.506;9.050;2022-08-04T02:08:20;2.20;;;2.00;;
13487;SDS011;6816;48.506;9.050;2022-08-04T02:11:26;2.15;;;1.95;;
13487;SDS011;6816;48.506;9.050;2022-08-04T02:14:28;2.17;;;1.95;;
13487;SDS011;6816;48.506;9.050;2022-08-04T02:17:52;2.60;;;2.05;;
13487;SDS011;6816;48.506;9.050;2022-08-04T02:21:03;2.15;;;2.00;;
13487;SDS011;6816;48.506;9.050;2022-08-04T02:24:05;3.35;;;1.92;;
13487;SDS011;6816;48.506;9.050;2022-08-04T02:27:08;2.13;;;2.03;;
13487;SDS011;6816;48.506;9.050;2022-08-04T02:30:11;2.20;;;2.00;;
13487;SDS011;6816;48.506;9.050;2022-08-04T02:33:12;2.10;;;2.00;;
13487;SDS011;6816;48.506;9.050;2022-08-04T02:36:37;1.70;;;1.60;;
13487;SDS011;6816;48.506;9.050;2022-08-04T02:39:40;2.33;;;2.17;;
13487;SDS011;6816;48.506;9.050;2022-08-04T02:42:43;2.10;;;1.98;;
13487;SDS011;6816;48.506;9.050;2022-08-04T02:45:45;1.98;;;1.88;;
13487;SDS011;6816;48.506;9.050;2022-08-04T02:48:51;2.20;;;2.00;;
13487;SDS011;6816;48.506;9.050;2022-08-04T02:51:53;2.50;;;2.13;;
13487;SDS011;6816;48.506;9.050;2022-08-04T02:54:56;2.13;;;1.90;;
13487;SDS011;6816;48.506;9.050;2022-08-04T02:58:01;2.40;;;2.20;;
13487;SDS011;6816;48.506;9.050;2022-08-04T03:01:03;2.60;;;2.15;;
13487;SDS011;6816;48.506;9.050;2022-08-04T03:04:17;2.05;;;1.95;;
13487;SDS011;6816;48.506;9.050;2022-08-04T03:11:02;2.10;;;2.00;;
13487;SDS011;6816;48.506;9.050;2022-08-04T03:33:53;2.50;;;2.30;;
13487;SDS011;6816;48.506;9.050;2022-08-04T03:37:24;2.53;;;2.30;;
13487;SDS011;6816;48.506;9.050;2022-08-04T04:01:34;2.95;;;1.92;;
13487;SDS011;6816;48.506;9.050;2022-08-04T04:11:43;2.40;;;2.20;;
13487;SDS011;6816;48.506;9.050;2022-08-04T04:24:03;2.30;;;2.10;;
13487;SDS011;6816;48.506;9.050;2022-08-04T04:50:33;2.53;;;2.33;;
13487;SDS011;6816;48.506;9.050;2022-08-04T04:57:10;2.78;;;2.58;;
13487;SDS011;6816;48.506;9.050;2022-08-04T05:00:23;2.47;;;2.28;;
13487;SDS011;6816;48.506;9.050;2022-08-04T05:06:42;3.33;;;2.30;;
13487;SDS011;6816;48.506;9.050;2022-08-04T05:10:00;2.28;;;2.08;;
13487;SDS011;6816;48.506;9.050;2022-08-04T05:13:16;2.60;;;2.40;;
13487;SDS011;6816;48.506;9.050;2022-08-04T05:16:44;2.45;;;2.25;;
13487;SDS011;6816;48.506;9.050;2022-08-04T05:23:01;2.58;;;2.38;;
13487;SDS011;6816;48.506;9.050;2022-08-04T05:26:10;2.78;;;2.40;;
13487;SDS011;6816;48.506;9.050;2022-08-04T05:29:30;2.88;;;2.67;;
13487;SDS011;6816;48.506;9.050;2022-08-04T05:32:53;4.25;;;2.45;;
13487;SDS011;6816;48.506;9.050;2022-08-04T05:36:02;2.50;;;2.30;;
13487;SDS011;6816;48.506;9.050;2022-08-04T05:39:10;3.45;;;2.50;;
13487;SDS011;6816;48.506;9.050;2022-08-04T05:42:18;2.60;;;2.40;;
13487;SDS011;6816;48.506;9.050;2022-08-04T05:45:20;2.85;;;2.65;;
13487;SDS011;6816;48.506;9.050;2022-08-04T05:48:22;2.97;;;2.15;;
13487;SDS011;6816;48.506;9.050;2022-08-04T05:51:24;2.78;;;2.58;;
13487;SDS011;6816;48.506;9.050;2022-08-04T05:54:27;2.25;;;2.13;;
13487;SDS011;6816;48.506;9.050;2022-08-04T05:57:30;4.15;;;2.60;;
13487;SDS011;6816;48.506;9.050;2022-08-04T06:00:31;3.38;;;2.60;;
13487;SDS011;6816;48.506;9.050;2022-08-04T06:03:33;2.50;;;2.30;;
13487;SDS011;6816;48.506;9.050;2022-08-04T06:06:35;3.92;;;3.03;;
13487;SDS011;6816;48.506;9.050;2022-08-04T06:09:36;2.40;;;2.25;;
13487;SDS011;6816;48.506;9.050;2022-08-04T06:12:41;2.78;;;2.55;;
13487;SDS011;6816;48.506;9.050;2022-08-04T06:15:48;4.57;;;2.47;;
13487;SDS011;6816;48.506;9.050;2022-08-04T06:18:52;2.60;;;2.40;;
13487;SDS011;6816;48.506;9.050;2022-08-04T06:21:56;2.90;;;2.70;;
13487;SDS011;6816;48.506;9.050;2022-08-04T06:24:58;2.90;;;2.70;;
13487;SDS011;6816;48.506;9.050;2022-08-04T06:28:02;3.08;;;2.88;;
13487;SDS011;6816;48.506;9.050;2022-08-04T06:31:05;3.22;;;2.85;;
13487;SDS011;6816;48.506;9.050;2022-08-04T06:34:09;4.90;;;2.50;;
13487;SDS011;6816;48.506;9.050;2022-08-04T06:37:11;2.70;;;2.50;;
13487;SDS011;6816;48.506;9.050;2022-08-04T06:40:14;2.65;;;2.35;;
13487;SDS011;6816;48.506;9.050;2022-08-04T06:43:17;3.22;;;2.75;;
13487;SDS011;6816;48.506;9.050;2022-08-04T06:46:18;2.60;;;2.40;;
13487;SDS011;6816;48.506;9.050;2022-08-04T06:49:20;5.85;;;2.50;;
13487;SDS011;6816;48.506;9.050;2022-08-04T06:52:22;3.33;;;2.40;;
13487;SDS011;6816;48.506;9.050;2022-08-04T06:55:23;3.63;;;2.35;;
13487;SDS011;6816;48.506;9.050;2022-08-04T06:58:24;3.10;;;2.80;;
13487;SDS011;6816;48.506;9.050;2022-08-04T07:01:27;2.60;;;2.40;;
13487;SDS011;6816;48.506;9.050;2022-08-04T07:04:29;3.45;;;2.50;;
13487;SDS011;6816;48.506;9.050;2022-08-04T07:07:30;2.17;;;2.08;;
13487;SDS011;6816;48.506;9.050;2022-08-04T07:10:30;2.63;;;2.42;;
13487;SDS011;6816;48.506;9.050;2022-08-04T07:13:32;5.13;;;2.50;;
13487;SDS011;6816;48.506;9.050;2022-08-04T07:16:33;2.60;;;2.40;;
13487;SDS011;6816;48.506;9.050;2022-08-04T07:19:34;2.63;;;2.42;;
13487;SDS011;6816;48.506;9.050;2022-08-04T07:22:35;5.05;;;2.20;;
13487;SDS011;6816;48.506;9.050;2022-08-04T07:25:37;2.50;;;2.30;;
13487;SDS011;6816;48.506;9.050;2022-08-04T07:28:38;2.17;;;2.08;;
13487;SDS011;6816;48.506;9.050;2022-08-04T07:31:40;3.47;;;3.17;;
13487;SDS011;6816;48.506;9.050;2022-08-04T07:34:41;2.28;;;2.05;;
13487;SDS011;6816;48.506;9.050;2022-08-04T07:37:42;3.65;;;2.50;;
13487;SDS011;6816;48.506;9.050;2022-08-04T07:40:43;3.53;;;2.13;;
13487;SDS011;6816;48.506;9.050;2022-08-04T07:43:44;2.90;;;2.10;;
13487;SDS011;6816;48.506;9.050;2022-08-04T07:46:46;2.35;;;2.08;;
13487;SDS011;6816;48.506;9.050;2022-08-04T07:49:47;2.60;;;2.40;;
13487;SDS011;6816;48.506;9.050;2022-08-04T07:52:47;2.40;;;2.20;;
13487;SDS011;6816;48.506;9.050;2022-08-04T07:55:48;2.35;;;2.22;;
13487;SDS011;6816;48.506;9.050;2022-08-04T07:58:49;2.30;;;2.20;;
13487;SDS011;6816;48.506;9.050;2022-08-04T08:01:50;2.20;;;2.10;;
13487;SDS011;6816;48.506;9.050;2022-08-04T08:04:52;2.28;;;2.10;;
13487;SDS011;6816;48.506;9.050;2022-08-04T08:07:53;3.20;;;2.08;;
13487;SDS011;6816;48.506;9.050;2022-08-04T08:10:55;1.75;;;1.60;;
13487;SDS011;6816;48.506;9.050;2022-08-04T08:13:56;2.22;;;2.00;;
13487;SDS011;6816;48.506;9.050;2022-08-04T08:16:58;2.75;;;1.90;;
13487;SDS011;6816;48.506;9.050;2022-08-04T08:20:01;2.33;;;1.95;;
13487;SDS011;6816;48.506;9.050;2022-08-04T08:23:02;1.88;;;1.77;;
13487;SDS011;6816;48.506;9.050;2022-08-04T08:26:04;1.77;;;1.67;;
13487;SDS011;6816;48.506;9.050;2022-08-04T08:29:06;3.95;;;1.90;;
13487;SDS011;6816;48.506;9.050;2022-08-04T08:32:07;1.85;;;1.75;;
13487;SDS011;6816;48.506;9.050;2022-08-04T08:35:12;2.97;;;1.55;;
13487;SDS011;6816;48.506;9.050;2022-08-04T08:38:14;1.75;;;1.65;;
13487;SDS011;6816;48.506;9.050;2022-08-04T08:54:46;1.80;;;1.70;;
13487;SDS011;6816;48.506;9.050;2022-08-04T09:01:21;2.15;;;1.70;;
13487;SDS011;6816;48.506;9.050;2022-08-04T09:11:41;1.70;;;1.60;;
13487;SDS011;6816;48.506;9.050;2022-08-04T09:18:22;1.90;;;1.80;;
13487;SDS011;6816;48.506;9.050;2022-08-04T09:24:51;2.45;;;1.80;;
13487;SDS011;6816;48.506;9.050;2022-08-04T09:28:04;2.00;;;1.90;;
13487;SDS011;6816;48.506;9.050;2022-08-04T09:31:16;1.83;;;1.73;;
13487;SDS011;6816;48.506;9.050;2022-08-04T09:34:50;1.92;;;1.83;;
13487;SDS011;6816;48.506;9.050;2022-08-04T09:38:22;1.83;;;1.73;;
13487;SDS011;6816;48.506;9.050;2022-08-04T09:41:44;1.90;;;1.80;;
13487;SDS011;6816;48.506;9.050;2022-08-04T09:44:59;1.83;;;1.73;;
13487;SDS011;6816;48.506;9.050;2022-08-04T09:58:45;2.47;;;1.50;;
13487;SDS011;6816;48.506;9.050;2022-08-04T10:01:58;1.95;;;1.75;;
13487;SDS011;6816;48.506;9.050;2022-08-04T10:05:16;1.88;;;1.77;;
13487;SDS011;6816;48.506;9.050;2022-08-04T10:15:05;1.52;;;1.42;;
13487;SDS011;6816;48.506;9.050;2022-08-04T10:18:16;1.40;;;1.40;;
13487;SDS011;6816;48.506;9.050;2022-08-04T10:21:25;1.20;;;1.20;;
13487;SDS011;6816;48.506;9.050;2022-08-04T10:28:16;1.40;;;1.30;;
13487;SDS011;6816;48.506;9.050;2022-08-04T10:31:21;3.47;;;1.20;;
13487;SDS011;6816;48.506;9.050;2022-08-04T10:34:31;1.65;;;1.38;;
13487;SDS011;6816;48.506;9.050;2022-08-04T10:40:47;1.52;;;1.42;;
13487;SDS011;6816;48.506;9.050;2022-08-04T10:47:23;1.08;;;1.08;;
13487;SDS011;6816;48.506;9.050;2022-08-04T10:50:30;1.50;;;1.40;;
13487;SDS011;6816;48.506;9.050;2022-08-04T10:53:36;1.55;;;1.45;;
13487;SDS011;6816;48.506;9.050;2022-08-04T10:56:40;1.70;;;1.60;;
13487;SDS011;6816;48.506;9.050;2022-08-04T10:59:46;1.80;;;1.70;;
13487;SDS011;6816;48.506;9.050;2022-08-04T11:06:07;1.67;;;1.58;;
13487;SDS011;6816;48.506;9.050;2022-08-04T11:09:08;1.60;;;1.50;;
13487;SDS011;6816;48.506;9.050;2022-08-04T11:12:18;1.60;;;1.50;;
13487;SDS011;6816;48.506;9.050;2022-08-04T11:15:29;1.77;;;1.67;;
13487;SDS011;6816;48.506;9.050;2022-08-04T11:19:28;1.80;;;1.70;;
13487;SDS011;6816;48.506;9.050;2022-08-04T11:25:21;1.50;;;1.40;;
13487;SDS011;6816;48.506;9.050;2022-08-04T11:31:47;1.60;;;1.50;;
13487;SDS011;6816;48.506;9.050;2022-08-04T11:34:50;1.60;;;1.50;;
13487;SDS011;6816;48.506;9.050;2022-08-04T11:41:34;1.80;;;1.70;;
13487;SDS011;6816;48.506;9.050;2022-08-04T11:44:42;1.60;;;1.50;;
13487;SDS011;6816;48.506;9.050;2022-08-04T11:47:50;1.55;;;1.45;;
13487;SDS011;6816;48.506;9.050;2022-08-04T11:50:57;2.40;;;1.70;;
13487;SDS011;6816;48.506;9.050;2022-08-04T11:54:01;1.38;;;1.38;;
13487;SDS011;6816;48.506;9.050;2022-08-04T11:57:02;1.33;;;1.30;;
13487;SDS011;6816;48.506;9.050;2022-08-04T12:00:08;1.60;;;1.50;;
13487;SDS011;6816;48.506;9.050;2022-08-04T12:03:18;1.50;;;1.40;;
13487;SDS011;6816;48.506;9.050;2022-08-04T12:09:47;1.48;;;1.38;;
13487;SDS011;6816;48.506;9.050;2022-08-04T12:16:39;1.50;;;1.40;;
13487;SDS011;6816;48.506;9.050;2022-08-04T12:19:49;3.92;;;1.95;;
13487;SDS011;6816;48.506;9.050;2022-08-04T12:22:54;1.80;;;1.70;;
13487;SDS011;6816;48.506;9.050;2022-08-04T12:25:59;1.70;;;1.60;;
13487;SDS011;6816;48.506;9.050;2022-08-04T12:29:05;1.63;;;1.50;;
13487;SDS011;6816;48.506;9.050;2022-08-04T12:32:17;1.65;;;1.55;;
13487;SDS011;6816;48.506;9.050;2022-08-04T12:35:25;2.30;;;1.60;;
13487;SDS011;6816;48.506;9.050;2022-08-04T12:38:31;1.60;;;1.50;;
13487;SDS011;6816;48.506;9.050;2022-08-04T12:41:35;1.95;;;1.80;;
13487;SDS011;6816;48.506;9.050;2022-08-04T12:44:41;1.38;;;1.38;;
13487;SDS011;6816;48.506;9.050;2022-08-04T12:47:44;1.50;;;1.40;;
13487;SDS011;6816;48.506;9.050;2022-08-04T12:50:47;1.85;;;1.40;;
13487;SDS011;6816;48.506;9.050;2022-08-04T12:53:50;1.45;;;1.35;;
13487;SDS011;6816;48.506;9.050;2022-08-04T12:56:51;1.60;;;1.50;;
13487;SDS011;6816;48.506;9.050;2022-08-04T12:59:57;4.00;;;1.65;;
13487;SDS011;6816;48.506;9.050;2022-08-04T13:03:00;1.38;;;1.27;;
13487;SDS011;6816;48.506;9.050;2022-08-04T13:06:05;1.50;;;1.40;;
13487;SDS011;6816;48.506;9.050;2022-08-04T13:09:14;1.50;;;1.40;;
13487;SDS011;6816;48.506;9.050;2022-08-04T13:12:20;1.45;;;1.35;;
13487;SDS011;6816;48.506;9.050;2022-08-04T13:15:26;1.75;;;1.65;;
13487;SDS011;6816;48.506;9.050;2022-08-04T13:18:28;1.63;;;1.45;;
13487;SDS011;6816;48.506;9.050;2022-08-04T13:21:30;1.50;;;1.40;;
13487;SDS011;6816;48.506;9.050;2022-08-04T13:24:32;1.38;;;1.27;;
13487;SDS011;6816;48.506;9.050;2022-08-04T13:27:36;1.63;;;1.52;;
13487;SDS011;6816;48.506;9.050;2022-08-04T13:30:38;1.55;;;1.40;;
13487;SDS011;6816;48.506;9.050;2022-08-04T13:33:41;2.22;;;1.50;;
13487;SDS011;6816;48.506;9.050;2022-08-04T13:36:43;1.67;;;1.50;;
13487;SDS011;6816;48.506;9.050;2022-08-04T13:39:47;1.50;;;1.40;;
13487;SDS011;6816;48.506;9.050;2022-08-04T13:42:50;1.95;;;1.60;;
13487;SDS011;6816;48.506;9.050;2022-08-04T13:45:57;3.72;;;1.70;;
13487;SDS011;6816;48.506;9.050;2022-08-04T13:49:01;1.65;;;1.55;;
13487;SDS011;6816;48.506;9.050;2022-08-04T13:52:07;1.52;;;1.42;;
13487;SDS011;6816;48.506;9.050;2022-08-04T13:55:30;1.58;;;1.48;;
13487;SDS011;6816;48.506;9.050;2022-08-04T13:58:34;1.50;;;1.40;;
13487;SDS011;6816;48.506;9.050;2022-08-04T14:01:53;1.92;;;1.58;;
13487;SDS011;6816;48.506;9.050;2022-08-04T14:05:00;1.52;;;1.42;;
13487;SDS011;6816;48.506;9.050;2022-08-04T14:08:10;1.50;;;1.40;;
13487;SDS011;6816;48.506;9.050;2022-08-04T14:11:40;1.38;;;1.38;;
13487;SDS011;6816;48.506;9.050;2022-08-04T14:14:46;1.40;;;1.30;;
13487;SDS011;6816;48.506;9.050;2022-08-04T14:17:48;1.42;;;1.33;;
13487;SDS011;6816;48.506;9.050;2022-08-04T14:24:04;1.40;;;1.40;;
13487;SDS011;6816;48.506;9.050;2022-08-04T14:27:05;1.55;;;1.45;;
13487;SDS011;6816;48.506;9.050;2022-08-04T14:30:07;1.50;;;1.40;;
13487;SDS011;6816;48.506;9.050;2022-08-04T14:33:26;1.65;;;1.55;;
13487;SDS011;6816;48.506;9.050;2022-08-04T14:36:40;1.52;;;1.42;;
13487;SDS011;6816;48.506;9.050;2022-08-04T14:39:43;2.08;;;1.38;;
13487;SDS011;6816;48.506;9.050;2022-08-04T14:42:47;3.10;;;1.70;;
13487;SDS011;6816;48.506;9.050;2022-08-04T14:45:48;1.52;;;1.42;;
13487;SDS011;6816;48.506;9.050;2022-08-04T14:49:00;2.50;;;1.60;;
13487;SDS011;6816;48.506;9.050;2022-08-04T14:52:06;1.50;;;1.40;;
13487;SDS011;6816;48.506;9.050;2022-08-04T14:55:22;1.42;;;1.40;;
13487;SDS011;6816;48.506;9.050;2022-08-04T15:01:29;1.65;;;1.55;;
13487;SDS011;6816;48.506;9.050;2022-08-04T15:04:30;1.65;;;1.55;;
13487;SDS011;6816;48.506;9.050;2022-08-04T15:07:31;1.30;;;1.30;;
13487;SDS011;6816;48.506;9.050;2022-08-04T15:10:32;3.00;;;1.35;;
13487;SDS011;6816;48.506;9.050;2022-08-04T15:13:33;1.80;;;1.70;;
13487;SDS011;6816;48.506;9.050;2022-08-04T15:16:35;1.50;;;1.42;;
13487;SDS011;6816;48.506;9.050;2022-08-04T15:19:36;3.40;;;1.60;;
13487;SDS011;6816;48.506;9.050;2022-08-04T15:22:37;1.55;;;1.52;;
13487;SDS011;6816;48.506;9.050;2022-08-04T15:25:39;2.35;;;1.70;;
13487;SDS011;6816;48.506;9.050;2022-08-04T15:28:46;1.60;;;1.50;;
13487;SDS011;6816;48.506;9.050;2022-08-04T15:31:50;1.48;;;1.48;;
13487;SDS011;6816;48.506;9.050;2022-08-04T15:34:52;1.60;;;1.50;;
13487;SDS011;6816;48.506;9.050;2022-08-04T15:41:06;1.90;;;1.60;;
13487;SDS011;6816;48.506;9.050;2022-08-04T15:44:32;1.52;;;1.45;;
13487;SDS011;6816;48.506;9.050;2022-08-04T15:47:39;1.75;;;1.65;;
13487;SDS011;6816;48.506;9.050;2022-08-04T15:56:59;1.50;;;1.45;;
13487;SDS011;6816;48.506;9.050;2022-08-04T16:00:05;1.60;;;1.50;;
13487;SDS011;6816;48.506;9.050;2022-08-04T16:03:10;2.03;;;1.70;;
13487;SDS011;6816;48.506;9.050;2022-08-04T16:09:34;3.45;;;1.60;;
13487;SDS011;6816;48.506;9.050;2022-08-04T16:12:51;3.63;;;1.50;;
13487;SDS011;6816;48.506;9.050;2022-08-04T16:15:54;1.67;;;1.58;;
13487;SDS011;6816;48.506;9.050;2022-08-04T16:19:05;1.73;;;1.40;;
13487;SDS011;6816;48.506;9.050;2022-08-04T16:22:09;1.88;;;1.77;;
13487;SDS011;6816;48.506;9.050;2022-08-04T16:25:43;1.58;;;1.48;;
13487;SDS011;6816;48.506;9.050;2022-08-04T16:28:47;1.63;;;1.52;;
13487;SDS011;6816;48.506;9.050;2022-08-04T16:32:05;1.88;;;1.70;;
13487;SDS011;6816;48.506;9.050;2022-08-04T16:35:24;1.88;;;1.67;;
13487;SDS011;6816;48.506;9.050;2022-08-04T16:38:27;1.80;;;1.70;;
13487;SDS011;6816;48.506;9.050;2022-08-04T16:41:41;1.67;;;1.58;;
13487;SDS011;6816;48.506;9.050;2022-08-04T16:44:43;1.60;;;1.50;;
13487;SDS011;6816;48.506;9.050;2022-08-04T16:50:49;1.70;;;1.55;;
13487;SDS011;6816;48.506;9.050;2022-08-04T16:53:51;1.98;;;1.65;;
13487;SDS011;6816;48.506;9.050;2022-08-04T16:56:52;1.70;;;1.60;;
13487;SDS011;6816;48.506;9.050;2022-08-04T16:59:54;1.60;;;1.50;;
13487;SDS011;6816;48.506;9.050;2022-08-04T17:02:55;1.83;;;1.70;;
13487;SDS011;6816;48.506;9.050;2022-08-04T17:06:12;1.80;;;1.70;;
13487;SDS011;6816;48.506;9.050;2022-08-04T17:09:15;1.50;;;1.40;;
13487;SDS011;6816;48.506;9.050;2022-08-04T17:12:17;1.33;;;1.23;;
13487;SDS011;6816;48.506;9.050;2022-08-04T17:15:18;2.85;;;1.67;;
13487;SDS011;6816;48.506;9.050;2022-08-04T17:18:24;1.80;;;1.70;;
13487;SDS011;6816;48.506;9.050;2022-08-04T17:21:28;1.77;;;1.60;;
13487;SDS011;6816;48.506;9.050;2022-08-04T17:24:32;4.85;;;1.60;;
13487;SDS011;6816;48.506;9.050;2022-08-04T17:27:37;1.35;;;1.30;;
13487;SDS011;6816;48.506;9.050;2022-08-04T17:30:38;1.70;;;1.60;;
13487;SDS011;6816;48.506;9.050;2022-08-04T17:33:39;1.80;;;1.70;;
13487;SDS011;6816;48.506;9.050;2022-08-04T17:36:44;1.80;;;1.70;;
13487;SDS011;6816;48.506;9.050;2022-08-04T17:39:45;1.92;;;1.83;;
13487;SDS011;6816;48.506;9.050;2022-08-04T17:42:59;1.85;;;1.75;;
13487;SDS011;6816;48.506;9.050;2022-08-04T17:46:21;1.70;;;1.60;;
13487;SDS011;6816;48.506;9.050;2022-08-04T17:49:22;3.15;;;1.63;;
13487;SDS011;6816;48.506;9.050;2022-08-04T17:52:22;1.90;;;1.80;;
13487;SDS011;6816;48.506;9.050;2022-08-04T17:55:23;2.58;;;1.63;;
13487;SDS011;6816;48.506;9.050;2022-08-04T17:58:24;1.60;;;1.50;;
13487;SDS011;6816;48.506;9.050;2022-08-04T18:01:24;2.63;;;1.80;;
13487;SDS011;6816;48.506;9.050;2022-08-04T18:04:38;1.65;;;1.55;;
13487;SDS011;6816;48.506;9.050;2022-08-04T18:07:48;1.80;;;1.70;;
13487;SDS011;6816;48.506;9.050;2022-08-04T18:10:49;1.85;;;1.75;;
13487;SDS011;6816;48.506;9.050;2022-08-04T18:13:52;2.20;;;1.70;;
13487;SDS011;6816;48.506;9.050;2022-08-04T18:16:53;1.90;;;1.80;;
13487;SDS011;6816;48.506;9.050;2022-08-04T18:19:54;2.65;;;1.90;;
13487;SDS011;6816;48.506;9.050;2022-08-04T18:22:55;1.70;;;1.60;;
13487;SDS011;6816;48.506;9.050;2022-08-04T18:25:55;1.80;;;1.70;;
13487;SDS011;6816;48.506;9.050;2022-08-04T18:28:56;2.83;;;1.73;;
13487;SDS011;6816;48.506;9.050;2022-08-04T18:31:57;1.88;;;1.77;;
13487;SDS011;6816;48.506;9.050;2022-08-04T18:34:57;2.00;;;1.80;;
13487;SDS011;6816;48.506;9.050;2022-08-04T18:38:01;2.10;;;1.90;;
13487;SDS011;6816;48.506;9.050;2022-08-04T18:41:02;2.00;;;1.90;;
13487;SDS011;6816;48.506;9.050;2022-08-04T18:44:03;2.67;;;2.00;;
13487;SDS011;6816;48.506;9.050;2022-08-04T18:47:04;2.20;;;1.90;;
13487;SDS011;6816;48.506;9.050;2022-08-04T18:50:05;2.05;;;1.95;;
13487;SDS011;6816;48.506;9.050;2022-08-04T18:53:06;2.17;;;2.08;;
13487;SDS011;6816;48.506;9.050;2022-08-04T18:56:06;3.45;;;2.10;;
13487;SDS011;6816;48.506;9.050;2022-08-04T18:59:07;2.28;;;2.08;;
13487;SDS011;6816;48.506;9.050;2022-08-04T19:02:08;3.85;;;2.10;;
13487;SDS011;6816;48.506;9.050;2022-08-04T19:05:08;2.20;;;2.05;;
13487;SDS011;6816;48.506;9.050;2022-08-04T19:08:11;4.70;;;2.13;;
13487;SDS011;6816;48.506;9.050;2022-08-04T19:11:11;2.97;;;2.22;;
13487;SDS011;6816;48.506;9.050;2022-08-04T19:14:13;2.42;;;1.88;;
13487;SDS011;6816;48.506;9.050;2022-08-04T19:17:13;2.15;;;1.95;;
13487;SDS011;6816;48.506;9.050;2022-08-04T19:20:14;2.38;;;2.17;;
13487;SDS011;6816;48.506;9.050;2022-08-04T19:23:15;2.42;;;1.98;;
13487;SDS011;6816;48.506;9.050;2022-08-04T19:26:16;2.63;;;2.42;;
13487;SDS011;6816;48.506;9.050;2022-08-04T19:29:16;3.15;;;2.10;;
13487;SDS011;6816;48.506;9.050;2022-08-04T19:32:17;2.72;;;2.15;;
13487;SDS011;6816;48.506;9.050;2022-08-04T19:35:18;5.75;;;2.20;;
13487;SDS011;6816;48.506;9.050;2022-08-04T19:38:19;2.63;;;2.40;;
13487;SDS011;6816;48.506;9.050;2022-08-04T19:41:19;2.10;;;1.95;;
13487;SDS011;6816;48.506;9.050;2022-08-04T19:44:20;2.28;;;2.10;;
13487;SDS011;6816;48.506;9.050;2022-08-04T19:47:21;2.42;;;2.10;;
13487;SDS011;6816;48.506;9.050;2022-08-04T19:50:21;2.53;;;2.33;;
13487;SDS011;6816;48.506;9.050;2022-08-04T19:53:22;2.30;;;2.10;;
13487;SDS011;6816;48.506;9.050;2022-08-04T19:56:23;2.30;;;2.15;;
13487;SDS011;6816;48.506;9.050;2022-08-04T19:59:24;2.55;;;2.35;;
13487;SDS011;6816;48.506;9.050;2022-08-04T20:02:24;3.90;;;2.35;;
13487;SDS011;6816;48.506;9.050;2022-08-04T20:05:25;2.45;;;2.25;;
13487;SDS011;6816;48.506;9.050;2022-08-04T20:08:26;2.38;;;2.17;;
13487;SDS011;6816;48.506;9.050;2022-08-04T20:11:26;2.50;;;2.22;;
13487;SDS011;6816;48.506;9.050;2022-08-04T20:14:27;3.45;;;2.50;;
13487;SDS011;6816;48.506;9.050;2022-08-04T20:17:28;2.75;;;2.35;;
13487;SDS011;6816;48.506;9.050;2022-08-04T20:20:28;2.53;;;2.22;;
13487;SDS011;6816;48.506;9.050;2022-08-04T20:23:29;2.50;;;2.30;;
13487;SDS011;6816;48.506;9.050;2022-08-04T20:26:30;2.63;;;2.42;;
13487;SDS011;6816;48.506;9.050;2022-08-04T20:29:30;2.42;;;2.28;;
13487;SDS011;6816;48.506;9.050;2022-08-04T20:32:31;4.22;;;2.22;;
13487;SDS011;6816;48.506;9.050;2022-08-04T20:35:32;2.58;;;2.33;;
13487;SDS011;6816;48.506;9.050;2022-08-04T20:38:32;2.65;;;2.45;;
13487;SDS011;6816;48.506;9.050;2022-08-04T20:41:33;3.13;;;2.60;;
13487;SDS011;6816;48.506;9.050;2022-08-04T20:44:34;3.00;;;2.80;;
13487;SDS011;6816;48.506;9.050;2022-08-04T20:47:34;3.90;;;2.45;;
13487;SDS011;6816;48.506;9.050;2022-08-04T20:50:35;3.58;;;2.80;;
13487;SDS011;6816;48.506;9.050;2022-08-04T20:53:36;3.00;;;2.55;;
13487;SDS011;6816;48.506;9.050;2022-08-04T20:56:36;2.40;;;2.20;;
13487;SDS011;6816;48.506;9.050;2022-08-04T20:59:37;2.60;;;2.40;;
13487;SDS011;6816;48.506;9.050;2022-08-04T21:02:38;3.28;;;2.72;;
13487;SDS011;6816;48.506;9.050;2022-08-04T21:05:38;2.78;;;2.58;;
13487;SDS011;6816;48.506;9.050;2022-08-04T21:08:39;3.00;;;2.38;;
13487;SDS011;6816;48.506;9.050;2022-08-04T21:11:39;2.83;;;2.60;;
13487;SDS011;6816;48.506;9.050;2022-08-04T21:14:42;2.38;;;2.28;;
13487;SDS011;6816;48.506;9.050;2022-08-04T21:17:43;2.63;;;2.42;;
13487;SDS011;6816;48.506;9.050;2022-08-04T21:20:44;3.03;;;2.58;;
13487;SDS011;6816;48.506;9.050;2022-08-04T21:23:45;3.55;;;2.45;;
13487;SDS011;6816;48.506;9.050;2022-08-04T21:26:49;2.97;;;2.40;;
13487;SDS011;6816;48.506;9.050;2022-08-04T21:29:50;3.08;;;2.20;;
13487;SDS011;6816;48.506;9.050;2022-08-04T21:32:51;2.55;;;2.35;;
13487;SDS011;6816;48.506;9.050;2022-08-04T21:35:52;2.85;;;2.50;;
13487;SDS011;6816;48.506;9.050;2022-08-04T21:38:53;2.85;;;2.50;;
13487;SDS011;6816;48.506;9.050;2022-08-04T21:41:54;2.85;;;2.65;;
13487;SDS011;6816;48.506;9.050;2022-08-04T21:44:55;2.40;;;2.20;;
13487;SDS011;6816;48.506;9.050;2022-08-04T21:47:55;3.08;;;2.65;;
13487;SDS011;6816;48.506;9.050;2022-08-04T21:50:56;8.30;;;2.42;;
13487;SDS011;6816;48.506;9.050;2022-08-04T21:53:57;2.70;;;2.50;;
13487;SDS011;6816;48.506;9.050;2022-08-04T21:56:57;3.47;;;2.50;;
13487;SDS011;6816;48.506;9.050;2022-08-04T21:59:58;3.30;;;2.25;;
13487;SDS011;6816;48.506;9.050;2022-08-04T22:02:58;2.38;;;2.17;;
13487;SDS011;6816;48.506;9.050;2022-08-04T22:06:02;3.00;;;2.55;;
13487;SDS011;6816;48.506;9.050;2022-08-04T22:09:02;2.85;;;2.53;;
13487;SDS011;6816;48.506;9.050;2022-08-04T22:12:03;2.70;;;2.50;;
13487;SDS011;6816;48.506;9.050;2022-08-04T22:15:04;3.63;;;2.80;;
13487;SDS011;6816;48.506;9.050;2022-08-04T22:18:07;3.03;;;2.80;;
13487;SDS011;6816;48.506;9.050;2022-08-04T22:21:08;2.90;;;2.50;;
13487;SDS011;6816;48.506;9.050;2022-08-04T22:24:08;2.55;;;2.35;;
13487;SDS011;6816;48.506;9.050;2022-08-04T22:27:12;2.55;;;2.38;;
13487;SDS011;6816;48.506;9.050;2022-08-04T22:30:36;4.75;;;2.58;;
13487;SDS011;6816;48.506;9.050;2022-08-04T22:33:37;4.00;;;2.90;;
13487;SDS011;6816;48.506;9.050;2022-08-04T22:36:38;3.90;;;3.05;;
13487;SDS011;6816;48.506;9.050;2022-08-04T22:39:38;3.25;;;3.00;;
13487;SDS011;6816;48.506;9.050;2022-08-04T22:42:39;3.38;;;2.90;;
13487;SDS011;6816;48.506;9.050;2022-08-04T22:45:43;2.97;;;2.78;;
13487;SDS011;6816;48.506;9.050;2022-08-04T22:48:43;3.60;;;2.65;;
13487;SDS011;6816;48.506;9.050;2022-08-04T22:51:44;2.70;;;2.50;;
13487;SDS011;6816;48.506;9.050;2022-08-04T22:54:45;3.33;;;3.03;;
13487;SDS011;6816;48.506;9.050;2022-08-04T22:57:45;3.10;;;2.90;;
13487;SDS011;6816;48.506;9.050;2022-08-04T23:00:46;3.15;;;2.85;;
13487;SDS011;6816;48.506;9.050;2022-08-04T23:03:47;3.20;;;2.90;;
13487;SDS011;6816;48.506;9.050;2022-08-04T23:06:48;2.97;;;2.63;;
13487;SDS011;6816;48.506;9.050;2022-08-04T23:09:48;3.00;;;2.80;;